Time;durP1;ratioP1;P1;durP2;ratioP2;P2;SDS_P1;SDS_P2;PMS_P1;PMS_P2;Temp;Humidity;BMP_temperature;BMP_pressure;BME280_temperature;BME280_humidity;BME280_pressure;Samples;Min_cycle;Max_cycle;Signal;HPM_P1;HPM_P2
2022/03/28 00:00:38;;;;;;;2.78;1.48;;;7.70;71.20;;;;;;4974662;28;20503;-76
2022/03/28 00:03:05;;;;;;;1.95;1.85;;;7.60;72.20;;;;;;4957242;28;20376;-75
2022/03/28 00:05:31;;;;;;;0.38;0.38;;;7.60;71.90;;;;;;4973896;28;20107;-76
2022/03/28 00:07:58;;;;;;;0.65;0.65;;;7.50;72.50;;;;;;4973914;28;20061;-76
2022/03/28 00:10:24;;;;;;;1.85;1.75;;;7.40;72.60;;;;;;4974493;28;20034;-75
2022/03/28 00:12:50;;;;;;;0.20;0.20;;;7.50;72.80;;;;;;4956900;28;20097;-75
2022/03/28 00:15:16;;;;;;;0.28;0.28;;;7.60;72.40;;;;;;4974182;28;20049;-76
2022/03/28 00:17:42;;;;;;;2.67;2.10;;;7.60;73.20;;;;;;4956747;28;20054;-76
2022/03/28 00:20:11;;;;;;;0.40;0.40;;;7.80;71.90;;;;;;4974176;28;20034;-75
2022/03/28 00:22:41;;;;;;;0.45;0.45;;;7.60;72.30;;;;;;4973015;28;20034;-75
2022/03/28 00:25:09;;;;;;;7.35;5.68;;;7.90;72.00;;;;;;4956895;28;20502;-76
2022/03/28 00:27:35;;;;;;;0.30;0.30;;;7.80;70.90;;;;;;4974024;28;20166;-76
2022/03/28 00:30:01;;;;;;;3.17;3.03;;;7.60;71.90;;;;;;4974232;28;20055;-76
2022/03/28 00:32:27;;;;;;;0.32;0.32;;;7.80;72.10;;;;;;4957053;28;20073;-76
2022/03/28 00:34:53;;;;;;;0.70;0.63;;;7.80;71.90;;;;;;4974460;28;20158;-75
2022/03/28 00:37:19;;;;;;;0.60;0.60;;;7.80;72.30;;;;;;4973969;28;20593;-76
2022/03/28 00:39:45;;;;;;;1.00;1.00;;;8.00;72.20;;;;;;4973030;28;20050;-76
2022/03/28 00:42:11;;;;;;;0.47;0.47;;;8.00;71.50;;;;;;4974311;28;20045;-75
2022/03/28 00:44:37;;;;;;;0.30;0.30;;;8.20;71.50;;;;;;4973669;28;20117;-75
2022/03/28 00:47:03;;;;;;;0.82;0.82;;;8.10;70.00;;;;;;4974098;28;20110;-76
2022/03/28 00:49:29;;;;;;;0.30;0.30;;;7.90;70.20;;;;;;4974152;28;20106;-76
2022/03/28 00:51:55;;;;;;;1.02;0.68;;;7.70;71.30;;;;;;4972880;28;20031;-76
2022/03/28 00:54:21;;;;;;;0.45;0.45;;;7.70;71.40;;;;;;4974056;28;20114;-75
2022/03/28 00:56:48;;;;;;;0.30;0.30;;;7.40;72.30;;;;;;4974392;28;20055;-76
2022/03/28 00:59:15;;;;;;;0.22;0.22;;;7.40;72.80;;;;;;4973044;28;20434;-76
2022/03/28 01:01:41;;;;;;;0.98;0.52;;;7.40;72.30;;;;;;4974471;28;20023;-76
2022/03/28 01:04:08;;;;;;;0.60;0.60;;;7.50;72.70;;;;;;4956927;28;20462;-75
2022/03/28 01:06:37;;;;;;;0.50;0.50;;;7.40;71.90;;;;;;4974187;28;20477;-75
2022/03/28 01:09:04;;;;;;;0.63;0.63;;;7.30;72.30;;;;;;4974553;28;20055;-76
2022/03/28 01:11:33;;;;;;;0.57;0.57;;;7.30;73.00;;;;;;4957131;28;20038;-75
2022/03/28 01:13:59;;;;;;;1.05;1.02;;;7.20;72.60;;;;;;4957259;28;20081;-72
2022/03/28 01:18:05;;;;;;;0.30;0.30;;;7.20;73.40;;;;;;4973579;28;20394;-73
2022/03/28 01:19:21;;;;;;;0.30;0.30;;;7.30;74.20;;;;;;4975922;28;20090;-75
2022/03/28 01:21:46;;;;;;;1.08;0.98;;;7.50;73.60;;;;;;4960036;28;20031;-76
2022/03/28 01:24:12;;;;;;;1.30;0.60;;;7.70;72.90;;;;;;4977509;28;20518;-76
2022/03/28 01:26:38;;;;;;;2.38;1.00;;;7.60;72.50;;;;;;4977130;28;20069;-75
2022/03/28 01:29:05;;;;;;;3.10;2.90;;;7.60;72.90;;;;;;4977357;28;20033;-75
2022/03/28 01:31:31;;;;;;;0.30;0.30;;;7.40;73.20;;;;;;4960167;28;20626;-76
2022/03/28 01:33:56;;;;;;;0.47;0.47;;;7.40;73.60;;;;;;4977252;28;20042;-76
2022/03/28 01:36:28;;;;;;;0.52;0.52;;;7.30;74.00;;;;;;4976970;28;20027;-75
2022/03/28 01:38:54;;;;;;;;;;;7.10;73.30;;;;;;4977487;28;20501;-75
2022/03/28 01:41:20;;;;;;;0.70;0.70;;;7.20;74.10;;;;;;4959626;28;19910;-75
2022/03/28 01:43:45;;;;;;;0.30;0.30;;;7.10;74.60;;;;;;4977098;28;20110;-76
2022/03/28 01:46:11;;;;;;;0.30;0.30;;;7.30;73.80;;;;;;4959256;28;20041;-76
2022/03/28 01:48:37;;;;;;;0.30;0.30;;;7.60;73.50;;;;;;4977210;28;20054;-76
2022/03/28 01:51:03;;;;;;;0.30;0.30;;;7.60;72.20;;;;;;4976797;28;20077;-76
2022/03/28 01:53:28;;;;;;;0.30;0.30;;;7.70;73.10;;;;;;4959660;28;20027;-74
2022/03/28 01:55:54;;;;;;;0.82;0.82;;;7.80;72.70;;;;;;4976531;28;20030;-76
2022/03/28 01:58:20;;;;;;;0.30;0.30;;;7.90;72.00;;;;;;4976472;28;20455;-76
2022/03/28 02:00:46;;;;;;;2.60;0.85;;;8.00;72.20;;;;;;4976652;28;20102;-76
2022/03/28 02:03:12;;;;;;;0.20;0.20;;;8.20;71.10;;;;;;4976545;28;20023;-76
2022/03/28 02:05:37;;;;;;;0.55;0.55;;;8.00;70.60;;;;;;4976284;28;20023;-76
2022/03/28 02:08:03;;;;;;;0.73;0.73;;;7.90;71.00;;;;;;4976512;28;20030;-75
2022/03/28 02:10:30;;;;;;;0.30;0.30;;;7.80;71.50;;;;;;4975247;28;20027;-76
2022/03/28 02:12:56;;;;;;;0.30;0.30;;;7.70;71.60;;;;;;4959013;28;20041;-75
2022/03/28 02:15:22;;;;;;;0.35;0.35;;;7.60;71.00;;;;;;4958918;28;20035;-75
2022/03/28 02:17:48;;;;;;;5.60;1.05;;;7.30;71.90;;;;;;4958696;28;20431;-76
2022/03/28 02:20:15;;;;;;;0.30;0.30;;;7.00;73.40;;;;;;4958829;28;20027;-75
2022/03/28 02:22:42;;;;;;;1.85;1.75;;;7.00;74.20;;;;;;4974904;28;20019;-75
2022/03/28 02:25:10;;;;;;;0.30;0.30;;;7.10;74.00;;;;;;4975982;28;20118;-76
2022/03/28 02:27:36;;;;;;;1.02;1.02;;;6.90;73.00;;;;;;4976028;28;20022;-75
2022/03/28 02:30:05;;;;;;;0.50;0.50;;;6.70;73.80;;;;;;4975365;28;20057;-76
2022/03/28 02:32:30;;;;;;;0.30;0.30;;;6.60;74.30;;;;;;4958931;28;20098;-75
2022/03/28 02:34:56;;;;;;;0.63;0.63;;;6.50;74.80;;;;;;4975509;28;20126;-76
2022/03/28 02:37:23;;;;;;;0.75;0.75;;;6.60;75.70;;;;;;4958320;28;20023;-75
2022/03/28 02:39:49;;;;;;;3.45;1.65;;;6.70;75.30;;;;;;4958846;28;20019;-75
2022/03/28 02:42:15;;;;;;;0.22;0.22;;;6.90;74.80;;;;;;4975943;28;20023;-75
2022/03/28 02:44:40;;;;;;;0.82;0.82;;;6.90;75.00;;;;;;4974479;28;20057;-76
2022/03/28 02:47:06;;;;;;;0.30;0.30;;;6.90;75.20;;;;;;4975712;28;20031;-76
2022/03/28 02:49:32;;;;;;;4.95;1.67;;;7.00;75.00;;;;;;4975725;28;20033;-76
2022/03/28 02:51:58;;;;;;;0.63;0.63;;;7.00;74.60;;;;;;4975812;28;20117;-75
2022/03/28 02:54:23;;;;;;;7.57;5.40;;;7.10;74.90;;;;;;4974500;28;20383;-76
2022/03/28 02:56:49;;;;;;;0.30;0.30;;;7.10;74.60;;;;;;4974509;28;20033;-75
2022/03/28 02:59:15;;;;;;;0.77;0.57;;;7.20;74.70;;;;;;4975693;28;20023;-76
2022/03/28 03:01:41;;;;;;;1.23;1.13;;;7.20;74.50;;;;;;4975560;28;20121;-75
2022/03/28 03:04:06;;;;;;;3.17;1.73;;;7.30;73.80;;;;;;4975541;28;20388;-76
2022/03/28 03:06:32;;;;;;;0.30;0.30;;;7.10;73.90;;;;;;4973920;28;20086;-75
2022/03/28 03:08:58;;;;;;;0.73;0.73;;;7.10;74.70;;;;;;4975849;28;20545;-76
2022/03/28 03:11:25;;;;;;;3.00;2.00;;;7.00;74.80;;;;;;4975343;28;20045;-76
2022/03/28 03:13:53;;;;;;;2.10;1.95;;;6.90;75.40;;;;;;4974037;28;20031;-75
2022/03/28 03:16:19;;;;;;;0.30;0.30;;;7.00;75.40;;;;;;4958125;28;20023;-76
2022/03/28 03:18:44;;;;;;;1.65;1.60;;;7.10;75.50;;;;;;4975197;28;20031;-76
2022/03/28 03:21:10;;;;;;;6.22;2.83;;;7.20;75.60;;;;;;4974413;28;20033;-76
2022/03/28 03:23:36;;;;;;;1.98;1.10;;;7.10;75.60;;;;;;4975420;28;20463;-76
2022/03/28 03:26:02;;;;;;;0.70;0.70;;;7.20;75.00;;;;;;4957864;28;20027;-75
2022/03/28 03:28:27;;;;;;;0.40;0.40;;;7.40;74.90;;;;;;4975338;28;20023;-76
2022/03/28 03:30:53;;;;;;;5.95;1.00;;;7.30;74.50;;;;;;4975207;28;20026;-76
2022/03/28 03:33:19;;;;;;;0.30;0.30;;;7.30;74.40;;;;;;4975134;28;20037;-76
2022/03/28 03:35:44;;;;;;;0.30;0.30;;;7.10;74.90;;;;;;4957725;28;20031;-76
2022/03/28 03:38:10;;;;;;;1.23;1.13;;;7.00;75.60;;;;;;4975293;28;20034;-76
2022/03/28 03:40:37;;;;;;;0.60;0.60;;;6.90;75.60;;;;;;4974004;28;20097;-75
2022/03/28 03:43:02;;;;;;;1.38;1.38;;;6.90;75.90;;;;;;4974843;28;20035;-75
2022/03/28 03:45:28;;;;;;;3.92;1.75;;;6.90;76.10;;;;;;4973704;28;20101;-75
2022/03/28 03:47:54;;;;;;;0.30;0.30;;;7.10;76.00;;;;;;4975107;28;20027;-74
2022/03/28 03:50:20;;;;;;;0.73;0.68;;;6.90;75.60;;;;;;4975519;28;20027;-75
2022/03/28 03:52:45;;;;;;;1.08;0.95;;;6.80;75.90;;;;;;4975068;28;20027;-75
2022/03/28 03:55:11;;;;;;;1.45;0.85;;;6.60;76.00;;;;;;4957451;28;20030;-75
2022/03/28 03:57:37;;;;;;;0.30;0.30;;;6.60;75.70;;;;;;4974583;28;20065;-75
2022/03/28 04:00:04;;;;;;;0.30;0.30;;;6.40;75.70;;;;;;4974795;28;20029;-75
2022/03/28 04:02:30;;;;;;;0.98;0.82;;;6.30;76.50;;;;;;4974462;28;20084;-75
2022/03/28 04:04:55;;;;;;;0.77;0.77;;;6.40;77.20;;;;;;4975105;28;20109;-75
2022/03/28 04:07:21;;;;;;;0.30;0.30;;;6.50;76.40;;;;;;4973605;28;20031;-74
2022/03/28 04:09:47;;;;;;;1.27;0.75;;;6.50;76.20;;;;;;4974084;28;20033;-74
2022/03/28 04:12:14;;;;;;;0.30;0.30;;;6.50;76.20;;;;;;4973510;28;20390;-74
2022/03/28 04:14:40;;;;;;;0.52;0.52;;;6.50;76.60;;;;;;4973485;28;20363;-74
2022/03/28 04:17:05;;;;;;;0.60;0.60;;;6.30;75.60;;;;;;4972109;28;20034;-74
2022/03/28 04:19:31;;;;;;;0.82;0.82;;;5.90;75.70;;;;;;4973634;28;20027;-74
2022/03/28 04:21:57;;;;;;;1.75;1.45;;;5.70;76.50;;;;;;4973473;28;20047;-74
2022/03/28 04:24:22;;;;;;;0.73;0.73;;;5.60;77.70;;;;;;4955980;28;20027;-74
2022/03/28 04:26:48;;;;;;;0.30;0.30;;;5.60;78.90;;;;;;4955939;28;20050;-74
2022/03/28 04:29:14;;;;;;;0.82;0.82;;;5.90;79.20;;;;;;4973319;28;20031;-74
2022/03/28 04:31:40;;;;;;;1.45;1.38;;;6.20;78.90;;;;;;4973458;28;20546;-74
2022/03/28 04:34:07;;;;;;;0.40;0.40;;;6.30;78.60;;;;;;4973323;28;20030;-74
2022/03/28 04:36:33;;;;;;;0.30;0.30;;;6.40;78.20;;;;;;4973556;28;20054;-74
2022/03/28 04:39:00;;;;;;;0.82;0.82;;;6.60;76.50;;;;;;4973377;28;20038;-74
2022/03/28 04:41:26;;;;;;;0.50;0.50;;;6.60;76.60;;;;;;4973361;28;20379;-74
2022/03/28 04:43:51;;;;;;;4.22;3.70;;;6.50;76.40;;;;;;4973040;28;20109;-74
2022/03/28 04:46:17;;;;;;;0.47;0.47;;;6.30;75.50;;;;;;5051322;22;20465;-72
2022/03/28 04:48:43;;;;;;;0.60;0.60;;;6.10;76.70;;;;;;5033929;28;20409;-72
2022/03/28 04:51:09;;;;;;;2.67;2.03;;;6.10;78.00;;;;;;5033707;28;20472;-72
2022/03/28 04:53:35;;;;;;;0.50;0.50;;;6.20;78.10;;;;;;5054298;28;20021;-72
2022/03/28 04:56:01;;;;;;;0.30;0.30;;;6.30;77.40;;;;;;5037552;28;20017;-74
2022/03/28 04:58:27;;;;;;;0.77;0.77;;;6.40;76.80;;;;;;5055447;28;20025;-74
2022/03/28 05:00:53;;;;;;;3.80;3.60;;;6.50;76.90;;;;;;5037670;28;20494;-74
2022/03/28 05:03:20;;;;;;;0.30;0.30;;;6.60;76.70;;;;;;5055591;28;20025;-73
2022/03/28 05:05:46;;;;;;;1.55;0.98;;;6.50;76.20;;;;;;5055260;28;20373;-73
2022/03/28 05:08:12;;;;;;;0.40;0.40;;;6.40;76.90;;;;;;5055504;28;20032;-73
2022/03/28 05:10:38;;;;;;;4.50;1.85;;;6.30;77.30;;;;;;5055300;28;20549;-73
2022/03/28 05:13:03;;;;;;;0.50;0.50;;;6.30;78.00;;;;;;5055532;28;20415;-73
2022/03/28 05:15:31;;;;;;;0.45;0.45;;;6.30;78.00;;;;;;5054987;28;20091;-73
2022/03/28 05:17:58;;;;;;;0.45;0.45;;;6.30;78.60;;;;;;5037413;28;20031;-73
2022/03/28 05:20:23;;;;;;;0.93;0.93;;;6.40;78.20;;;;;;5037546;28;20071;-73
2022/03/28 05:22:49;;;;;;;3.10;1.85;;;6.20;78.40;;;;;;5055226;28;20029;-73
2022/03/28 05:25:15;;;;;;;23.40;1.45;;;6.10;78.60;;;;;;5037464;28;20029;-74
2022/03/28 05:27:45;;;;;;;0.30;0.30;;;6.40;78.90;;;;;;5037319;28;20413;-72
2022/03/28 05:30:11;;;;;;;0.60;0.60;;;6.30;78.50;;;;;;5054641;28;20358;-72
2022/03/28 05:32:37;;;;;;;0.75;0.75;;;6.30;78.30;;;;;;5054935;28;20029;-73
2022/03/28 05:35:05;;;;;;;0.47;0.47;;;6.30;78.60;;;;;;5054639;28;20021;-73
2022/03/28 05:37:33;;;;;;;0.30;0.30;;;6.40;79.50;;;;;;5054751;28;20344;-73
2022/03/28 05:39:59;;;;;;;0.80;0.80;;;6.40;79.00;;;;;;5036814;28;20066;-73
2022/03/28 05:42:25;;;;;;;2.85;2.53;;;6.60;79.70;;;;;;5054731;28;20422;-73
2022/03/28 05:44:51;;;;;;;0.50;0.50;;;6.70;78.60;;;;;;5020205;28;20048;-72
2022/03/28 05:47:17;;;;;;;0.77;0.77;;;6.80;78.90;;;;;;5054889;28;20021;-73
2022/03/28 05:49:43;;;;;;;0.30;0.30;;;6.80;78.60;;;;;;5054853;28;20039;-73
2022/03/28 05:52:08;;;;;;;2.28;2.17;;;6.90;78.70;;;;;;5053153;28;20638;-72
2022/03/28 05:54:34;;;;;;;0.55;0.55;;;7.00;78.60;;;;;;5052867;28;20032;-73
2022/03/28 05:57:00;;;;;;;1.65;1.02;;;7.10;78.40;;;;;;5051863;28;20381;-74
2022/03/28 05:59:26;;;;;;;0.63;0.63;;;7.20;77.60;;;;;;5054426;28;20427;-73
2022/03/28 06:01:52;;;;;;;2.25;2.05;;;7.30;77.10;;;;;;5053685;28;20060;-73
2022/03/28 06:04:18;;;;;;;1.00;0.95;;;7.40;76.60;;;;;;5053644;28;20025;-75
2022/03/28 06:06:44;;;;;;;1.48;1.23;;;7.50;76.80;;;;;;5053843;28;20469;-74
2022/03/28 06:09:10;;;;;;;0.60;0.60;;;7.60;76.30;;;;;;5054247;28;20028;-75
2022/03/28 06:11:36;;;;;;;0.30;0.30;;;7.80;75.70;;;;;;5054119;28;20033;-75
2022/03/28 06:14:02;;;;;;;1.33;1.33;;;7.90;75.50;;;;;;5053999;28;20052;-75
2022/03/28 06:16:28;;;;;;;2.22;2.05;;;7.90;75.10;;;;;;5036297;28;20021;-73
2022/03/28 06:18:54;;;;;;;0.20;0.20;;;8.00;75.10;;;;;;5036109;28;20024;-73
2022/03/28 06:21:20;;;;;;;0.60;0.60;;;8.10;75.00;;;;;;5054008;28;20520;-74
2022/03/28 06:23:46;;;;;;;0.60;0.60;;;8.10;74.60;;;;;;5054136;28;20091;-76
2022/03/28 06:26:12;;;;;;;0.52;0.52;;;8.20;74.90;;;;;;5053541;28;20021;-73
2022/03/28 06:28:39;;;;;;;0.30;0.30;;;8.30;74.60;;;;;;5036134;28;20369;-73
2022/03/28 06:31:08;;;;;;;0.82;0.82;;;8.50;74.30;;;;;;5053741;28;20025;-74
2022/03/28 06:33:35;;;;;;;0.30;0.30;;;8.60;74.00;;;;;;5053956;28;20028;-74
2022/03/28 06:36:01;;;;;;;0.30;0.30;;;8.80;73.70;;;;;;5053237;28;20500;-74
2022/03/28 06:38:26;;;;;;;1.10;1.10;;;9.00;72.70;;;;;;5053624;28;20040;-75
2022/03/28 06:40:53;;;;;;;1.27;1.27;;;9.10;72.50;;;;;;5053275;28;20024;-73
2022/03/28 06:43:18;;;;;;;1.30;1.27;;;9.10;73.20;;;;;;5053601;28;20108;-74
2022/03/28 06:45:45;;;;;;;1.10;1.00;;;9.10;73.20;;;;;;5053220;28;20124;-75
2022/03/28 06:48:11;;;;;;;2.97;2.75;;;9.20;73.00;;;;;;5019167;28;20106;-74
2022/03/28 06:50:37;;;;;;;2.05;1.55;;;9.30;72.60;;;;;;5014731;28;20071;-74
2022/03/28 06:53:03;;;;;;;1.08;0.73;;;9.40;72.10;;;;;;5027918;28;20057;-74
2022/03/28 06:55:29;;;;;;;5.28;1.85;;;9.50;70.90;;;;;;5033383;28;20029;-74
2022/03/28 06:57:55;;;;;;;2.70;1.25;;;9.70;71.00;;;;;;5018752;28;20027;-74
2022/03/28 07:00:21;;;;;;;0.30;0.30;;;9.90;70.10;;;;;;5046752;28;20029;-74
2022/03/28 07:02:47;;;;;;;1.75;1.65;;;9.90;69.40;;;;;;5041271;28;20044;-74
2022/03/28 07:05:13;;;;;;;2.03;1.92;;;10.00;69.00;;;;;;5023727;28;20365;-75
2022/03/28 07:07:43;;;;;;;0.20;0.20;;;10.10;68.80;;;;;;5042096;28;20033;-74
2022/03/28 07:10:18;;;;;;;0.63;0.63;;;10.20;68.60;;;;;;5042015;28;20116;-73
2022/03/28 07:12:44;;;;;;;0.30;0.30;;;10.30;68.40;;;;;;5041940;28;20400;-73
2022/03/28 07:15:11;;;;;;;2.35;2.20;;;10.40;68.70;;;;;;5006771;28;20025;-73
2022/03/28 07:17:54;;;;;;;1.25;0.90;;;10.50;68.70;;;;;;5041167;28;20060;-73
2022/03/28 07:20:27;;;;;;;0.20;0.20;;;10.50;68.20;;;;;;5023927;28;20029;-73
2022/03/28 07:22:55;;;;;;;0.20;0.20;;;10.60;68.50;;;;;;5041207;28;20231;-74
2022/03/28 07:25:22;;;;;;;12.27;8.52;;;10.80;68.10;;;;;;5040524;28;20041;-75
2022/03/28 07:27:49;;;;;;;0.85;0.85;;;10.90;67.60;;;;;;5023125;28;20119;-74
2022/03/28 07:30:15;;;;;;;0.60;0.60;;;11.00;67.00;;;;;;5041950;28;20465;-74
2022/03/28 07:32:41;;;;;;;0.20;0.20;;;11.20;66.90;;;;;;5040902;28;20063;-75
2022/03/28 07:35:08;;;;;;;4.07;3.72;;;11.30;66.20;;;;;;5038592;28;20045;-75
2022/03/28 07:37:34;;;;;;;12.75;2.95;;;11.40;64.40;;;;;;5023301;28;20268;-75
2022/03/28 07:40:01;;;;;;;1.10;0.70;;;11.50;63.40;;;;;;5006905;28;20370;-75
2022/03/28 07:42:28;;;;;;;4.18;3.95;;;11.50;63.30;;;;;;5040498;28;20056;-76
2022/03/28 07:44:56;;;;;;;0.20;0.20;;;11.60;62.30;;;;;;5040670;28;20043;-75
2022/03/28 07:47:25;;;;;;;0.73;0.73;;;11.70;60.50;;;;;;5040403;28;20044;-76
2022/03/28 07:49:52;;;;;;;2.15;1.98;;;11.80;61.70;;;;;;5040775;28;20530;-75
2022/03/28 07:52:18;;;;;;;8.80;2.55;;;11.80;59.60;;;;;;5040748;28;20044;-76
2022/03/28 07:54:45;;;;;;;3.20;1.55;;;11.80;59.80;;;;;;5039536;28;20044;-75
2022/03/28 07:57:14;;;;;;;0.28;0.28;;;11.80;60.60;;;;;;5021807;28;20167;-75
2022/03/28 07:59:44;;;;;;;0.20;0.20;;;11.90;61.50;;;;;;5040622;28;20082;-75
2022/03/28 08:02:10;;;;;;;0.30;0.30;;;12.00;62.00;;;;;;5040015;28;20040;-75
2022/03/28 08:04:36;;;;;;;3.30;2.50;;;12.10;61.90;;;;;;5040658;28;20086;-75
2022/03/28 08:07:08;;;;;;;3.60;1.42;;;12.30;62.10;;;;;;5022288;28;20117;-76
2022/03/28 08:09:35;;;;;;;2.08;1.27;;;12.30;60.90;;;;;;5022619;28;20029;-73
2022/03/28 08:12:02;;;;;;;1.25;1.15;;;12.40;59.50;;;;;;5022581;28;20519;-73
2022/03/28 08:14:29;;;;;;;4.82;3.20;;;12.50;60.50;;;;;;5040914;28;20127;-73
2022/03/28 08:16:55;;;;;;;0.60;0.60;;;12.60;60.40;;;;;;5039969;28;20108;-73
2022/03/28 08:19:22;;;;;;;0.20;0.20;;;12.70;58.60;;;;;;5039785;28;20064;-73
2022/03/28 08:21:47;;;;;;;0.20;0.20;;;12.70;58.40;;;;;;5040048;28;20274;-73
2022/03/28 08:24:13;;;;;;;1.13;1.13;;;12.90;58.30;;;;;;5021934;28;20044;-73
2022/03/28 08:26:39;;;;;;;0.60;0.60;;;13.00;57.90;;;;;;5020969;28;20032;-73
2022/03/28 08:29:05;;;;;;;3.03;1.80;;;13.20;57.20;;;;;;5022338;28;20488;-74
2022/03/28 08:31:32;;;;;;;3.75;3.38;;;13.20;56.40;;;;;;5021779;28;20160;-74
2022/03/28 08:33:58;;;;;;;0.57;0.57;;;13.30;56.50;;;;;;5040339;28;20033;-74
2022/03/28 08:36:24;;;;;;;0.73;0.73;;;13.40;55.50;;;;;;5037566;28;20086;-74
2022/03/28 08:38:49;;;;;;;0.20;0.20;;;13.60;55.70;;;;;;5021894;28;20504;-74
2022/03/28 08:41:18;;;;;;;16.75;15.00;;;13.60;54.80;;;;;;5039881;28;20083;-74
2022/03/28 08:43:45;;;;;;;10.57;4.65;;;13.70;54.20;;;;;;5022330;28;20056;-75
2022/03/28 08:46:11;;;;;;;0.20;0.20;;;13.90;53.60;;;;;;5022156;28;20258;-76
2022/03/28 08:48:40;;;;;;;0.30;0.30;;;14.00;53.70;;;;;;5039470;28;20502;-75
2022/03/28 08:51:11;;;;;;;1.42;1.38;;;14.30;53.50;;;;;;5040175;28;20033;-74
2022/03/28 08:53:38;;;;;;;18.58;4.07;;;14.70;52.70;;;;;;5039369;28;20033;-74
2022/03/28 08:56:07;;;;;;;0.68;0.68;;;15.10;51.70;;;;;;5039162;28;20036;-75
2022/03/28 08:58:34;;;;;;;2.90;2.70;;;15.30;51.40;;;;;;5021544;28;20065;-74
2022/03/28 09:01:01;;;;;;;0.38;0.38;;;15.60;50.80;;;;;;5039887;28;20043;-74
2022/03/28 09:03:48;;;;;;;1.65;0.90;;;15.80;50.10;;;;;;5020517;28;20451;-74
2022/03/28 09:06:36;;;;;;;2.65;1.70;;;15.80;49.20;;;;;;5005341;28;20053;-74
2022/03/28 09:09:17;;;;;;;0.20;0.20;;;15.90;49.50;;;;;;5039367;28;20104;-75
2022/03/28 09:11:45;;;;;;;0.25;0.25;;;16.30;49.50;;;;;;5040355;28;20032;-75
2022/03/28 09:14:12;;;;;;;3.22;1.55;;;16.60;47.40;;;;;;5021448;28;20044;-74
2022/03/28 09:16:38;;;;;;;5.72;2.22;;;16.90;46.50;;;;;;5028816;28;20056;-74
2022/03/28 09:19:11;;;;;;;0.20;0.20;;;17.40;45.20;;;;;;5021376;28;20485;-73
2022/03/28 09:21:38;;;;;;;0.47;0.47;;;17.70;43.80;;;;;;5037699;28;20417;-74
2022/03/28 09:24:09;;;;;;;8.20;7.32;;;17.70;44.00;;;;;;5036571;28;20069;-74
2022/03/28 09:26:34;;;;;;;3.40;1.70;;;18.00;42.50;;;;;;5036670;28;20029;-74
2022/03/28 09:29:02;;;;;;;2.17;1.10;;;18.10;41.80;;;;;;5039234;28;20672;-74
2022/03/28 09:31:31;;;;;;;2.25;2.15;;;18.10;41.20;;;;;;5039660;28;20523;-74
2022/03/28 09:34:13;;;;;;;1.40;1.30;;;18.40;41.90;;;;;;5039672;28;20657;-74
2022/03/28 09:36:38;;;;;;;8.60;4.28;;;18.80;40.10;;;;;;5039101;28;20484;-74
2022/03/28 09:39:06;;;;;;;12.63;5.80;;;18.80;39.90;;;;;;5023050;28;20116;-76
2022/03/28 09:41:33;;;;;;;4.00;2.40;;;18.50;39.60;;;;;;5025418;28;20029;-74
2022/03/28 09:43:59;;;;;;;0.13;0.10;;;18.80;39.90;;;;;;5043101;28;20039;-73
2022/03/28 09:46:30;;;;;;;1.42;0.28;;;19.30;39.60;;;;;;5025396;28;20048;-74
2022/03/28 09:48:58;;;;;;;0.20;0.20;;;19.70;39.40;;;;;;5042510;28;20158;-76
2022/03/28 09:51:27;;;;;;;0.50;0.50;;;20.00;38.50;;;;;;5043053;28;20056;-75
2022/03/28 09:53:53;;;;;;;3.40;2.88;;;20.00;38.20;;;;;;5041422;28;20886;-75
2022/03/28 09:56:18;;;;;;;4.47;4.13;;;19.90;37.60;;;;;;5040336;28;20029;-75
2022/03/28 09:58:56;;;;;;;0.70;0.70;;;19.20;39.30;;;;;;5023367;28;20029;-75
2022/03/28 10:01:26;;;;;;;5.53;3.50;;;19.30;39.40;;;;;;5041681;28;20027;-75
2022/03/28 10:04:00;;;;;;;1.88;1.77;;;20.20;38.30;;;;;;5041709;28;20091;-74
2022/03/28 10:06:28;;;;;;;0.75;0.75;;;20.40;37.30;;;;;;5041678;28;20113;-73
2022/03/28 10:08:53;;;;;;;0.80;0.80;;;20.80;37.50;;;;;;5041824;28;20106;-73
2022/03/28 10:11:19;;;;;;;0.10;0.10;;;21.30;36.50;;;;;;5024912;28;20025;-74
2022/03/28 10:13:46;;;;;;;4.85;2.42;;;21.50;36.60;;;;;;5023308;28;20053;-73
2022/03/28 10:16:13;;;;;;;3.45;1.77;;;21.00;37.30;;;;;;5023853;28;20024;-73
2022/03/28 10:18:40;;;;;;;1.08;0.57;;;20.90;36.70;;;;;;5040582;28;20519;-73
2022/03/28 10:21:08;;;;;;;1.65;1.52;;;21.50;36.60;;;;;;5041013;28;20104;-74
2022/03/28 10:24:11;;;;;;;2.35;0.55;;;22.10;35.80;;;;;;5040739;28;20666;-74
2022/03/28 10:26:40;;;;;;;0.52;0.52;;;22.90;34.30;;;;;;5037584;28;20049;-74
2022/03/28 10:29:09;;;;;;;12.02;6.40;;;23.00;34.30;;;;;;5024061;28;20057;-75
2022/03/28 10:31:56;;;;;;;1.10;1.00;;;22.60;33.50;;;;;;5040747;28;20093;-74
2022/03/28 10:34:41;;;;;;;1.27;0.88;;;22.90;33.70;;;;;;5040549;28;20484;-74
2022/03/28 10:37:26;;;;;;;0.28;0.28;;;23.10;33.30;;;;;;5023909;28;20045;-74
2022/03/28 10:40:11;;;;;;;4.90;3.20;;;23.30;33.40;;;;;;5041709;28;20029;-75
2022/03/28 10:42:39;;;;;;;0.93;0.93;;;23.30;33.60;;;;;;5041997;28;20026;-75
2022/03/28 10:45:08;;;;;;;3.33;1.35;;;23.70;33.20;;;;;;5023983;28;20063;-75
2022/03/28 10:47:48;;;;;;;1.98;1.73;;;23.60;33.20;;;;;;5024358;28;20392;-75
2022/03/28 10:50:19;;;;;;;2.83;2.63;;;23.10;33.80;;;;;;5022122;28;20385;-76
2022/03/28 10:53:16;;;;;;;2.55;2.10;;;23.70;33.60;;;;;;5041318;28;20123;-74
2022/03/28 10:55:47;;;;;;;4.97;4.03;;;24.00;33.10;;;;;;5040016;28;20451;-74
2022/03/28 10:58:30;;;;;;;0.80;0.80;;;24.00;32.60;;;;;;5040605;28;20036;-75
2022/03/28 11:01:08;;;;;;;5.85;2.00;;;23.70;32.90;;;;;;5041035;28;20358;-74
2022/03/28 11:03:47;;;;;;;0.55;0.55;;;23.40;33.30;;;;;;5041864;28;20113;-75
2022/03/28 11:06:18;;;;;;;9.45;3.35;;;23.90;33.00;;;;;;5023625;28;20494;-75
2022/03/28 11:09:03;;;;;;;2.27;1.80;;;24.20;32.10;;;;;;5041978;28;20467;-74
2022/03/28 11:11:32;;;;;;;0.10;0.10;;;24.60;31.90;;;;;;5041134;28;20037;-74
2022/03/28 11:14:12;;;;;;;0.65;0.65;;;24.70;31.50;;;;;;5023486;28;20040;-74
2022/03/28 11:16:41;;;;;;;1.00;0.52;;;25.20;31.40;;;;;;5006360;28;20046;-75
2022/03/28 11:19:29;;;;;;;1.35;1.20;;;25.00;30.70;;;;;;5041135;28;20418;-75
2022/03/28 11:22:06;;;;;;;2.03;1.85;;;25.20;30.60;;;;;;5023596;28;20036;-75
2022/03/28 11:24:56;;;;;;;8.07;3.30;;;25.40;31.00;;;;;;5023314;28;20243;-74
2022/03/28 11:27:24;;;;;;;0.45;0.45;;;25.50;30.80;;;;;;5040931;28;20079;-73
2022/03/28 11:30:00;;;;;;;12.50;5.57;;;25.50;30.80;;;;;;5023332;28;20032;-74
2022/03/28 11:32:37;;;;;;;7.07;3.55;;;25.30;30.30;;;;;;5041176;28;20039;-74
2022/03/28 11:35:04;;;;;;;3.17;2.33;;;25.30;30.40;;;;;;5023187;28;20033;-76
2022/03/28 11:37:31;;;;;;;1.45;1.35;;;25.40;30.40;;;;;;5023693;28;20029;-75
2022/03/28 11:40:01;;;;;;;1.92;1.70;;;25.30;30.00;;;;;;5041002;28;20025;-75
2022/03/28 11:42:33;;;;;;;7.63;4.93;;;24.90;30.90;;;;;;5040411;28;20029;-75
2022/03/28 11:45:10;;;;;;;1.17;1.17;;;25.20;30.90;;;;;;5040538;28;20115;-75
2022/03/28 11:47:38;;;;;;;2.70;1.90;;;25.20;30.70;;;;;;5041488;28;20116;-75
2022/03/28 11:50:09;;;;;;;3.85;1.60;;;24.80;30.40;;;;;;5040393;28;20535;-75
2022/03/28 11:52:36;;;;;;;9.30;6.07;;;24.70;30.30;;;;;;5040766;28;20035;-75
2022/03/28 11:55:16;;;;;;;9.27;3.60;;;24.60;30.70;;;;;;5040215;28;20041;-74
2022/03/28 12:00:32;;;;;;;5.50;2.53;;;24.10;31.70;;;;;;5040036;28;20457;-75
2022/03/28 12:02:59;;;;;;;6.47;1.33;;;24.80;30.60;;;;;;5021463;28;20108;-74
2022/03/28 12:05:32;;;;;;;4.15;2.63;;;24.30;30.50;;;;;;5038767;28;20510;-74
2022/03/28 12:08:19;;;;;;;0.63;0.45;;;24.70;31.00;;;;;;5039332;28;20525;-76
2022/03/28 12:10:50;;;;;;;2.00;1.30;;;25.20;29.70;;;;;;5039524;28;20053;-74
2022/03/28 12:13:17;;;;;;;3.78;1.75;;;24.70;29.50;;;;;;5039575;28;20025;-74
2022/03/28 12:15:46;;;;;;;1.30;1.20;;;24.70;30.00;;;;;;5020464;28;20034;-74
2022/03/28 12:18:14;;;;;;;11.23;4.50;;;25.20;29.50;;;;;;5040861;28;20068;-75
2022/03/28 12:20:43;;;;;;;3.50;2.03;;;24.50;29.40;;;;;;5022464;28;20396;-75
2022/03/28 12:23:12;;;;;;;2.80;0.70;;;24.30;30.30;;;;;;5040044;28;20036;-75
2022/03/28 12:25:39;;;;;;;7.47;2.80;;;24.50;30.30;;;;;;5020850;28;20033;-74
2022/03/28 12:28:13;;;;;;;3.63;2.70;;;24.70;29.90;;;;;;5040294;28;20028;-74
2022/03/28 12:30:50;;;;;;;4.88;4.47;;;24.30;30.00;;;;;;5039828;28;20036;-74
2022/03/28 12:33:26;;;;;;;0.80;0.63;;;23.80;30.80;;;;;;5040175;28;20556;-74
2022/03/28 12:36:08;;;;;;;4.78;1.35;;;24.00;30.50;;;;;;5022219;28;20093;-73
2022/03/28 12:38:39;;;;;;;4.45;1.52;;;23.70;30.40;;;;;;5020355;28;20041;-74
2022/03/28 12:41:11;;;;;;;2.90;1.00;;;23.40;30.40;;;;;;5020710;28;20029;-75
2022/03/28 12:43:38;;;;;;;0.10;0.10;;;23.60;30.40;;;;;;5021486;28;20087;-74
2022/03/28 12:46:06;;;;;;;2.22;1.65;;;23.80;30.00;;;;;;5039320;28;20069;-74
2022/03/28 12:48:39;;;;;;;3.53;2.47;;;23.70;29.60;;;;;;5040774;28;20366;-74
2022/03/28 12:51:06;;;;;;;0.40;0.40;;;23.20;29.20;;;;;;5005292;28;20389;-74
2022/03/28 12:53:34;;;;;;;13.80;4.55;;;23.10;29.90;;;;;;5021594;28;20025;-73
2022/03/28 12:56:13;;;;;;;9.18;3.05;;;22.90;30.00;;;;;;5020319;28;20447;-74
2022/03/28 12:58:40;;;;;;;0.88;0.88;;;22.80;30.40;;;;;;5022220;28;20025;-74
2022/03/28 13:01:09;;;;;;;15.50;4.75;;;22.80;32.30;;;;;;5021673;28;20029;-74